Time;durP1;ratioP1;P1;durP2;ratioP2;P2;SDS_P1;SDS_P2;PMS_P1;PMS_P2;Temp;Humidity;BMP_temperature;BMP_pressure;BME280_temperature;BME280_humidity;BME280_pressure;Samples;Min_cycle;Max_cycle;Signal;HPM_P1;HPM_P2
2024/02/03 00:03:25;;;;;;;0.00;0.00;;;;;;;8.21;82.53;101325.31;15795896;28;20471;-49
2024/02/03 00:10:59;;;;;;;0.00;0.00;;;;;;;8.10;83.14;101321.22;15791974;28;20032;-52
2024/02/03 00:18:37;;;;;;;1.08;0.88;;;;;;;8.20;82.59;101327.16;15790347;28;20469;-50
2024/02/03 00:26:15;;;;;;;0.35;0.10;;;;;;;8.52;81.33;101320.72;15812545;28;20034;-46
2024/02/03 00:33:50;;;;;;;5.95;0.82;;;;;;;8.35;81.66;101317.34;15852931;28;20483;-48
2024/02/03 00:41:24;;;;;;;0.00;0.00;;;;;;;8.54;80.99;101312.50;15871972;28;20039;-52
2024/02/03 00:48:59;;;;;;;0.10;0.10;;;;;;;8.37;82.38;101325.22;15775965;28;20048;-45
2024/02/03 00:56:34;;;;;;;0.22;0.10;;;;;;;8.62;81.38;101337.31;15806288;28;20040;-48
2024/02/03 01:04:09;;;;;;;0.08;0.08;;;;;;;8.46;82.03;101332.16;15789216;28;20040;-47
2024/02/03 01:11:45;;;;;;;1.00;0.57;;;;;;;8.58;81.80;101335.19;15805668;28;20063;-44
2024/02/03 01:19:23;;;;;;;0.40;0.40;;;;;;;8.74;81.20;101324.34;15805065;28;20042;-49
2024/02/03 01:26:58;;;;;;;1.30;1.17;;;;;;;8.75;80.91;101335.88;15759711;28;20094;-50
2024/02/03 01:34:35;;;;;;;0.38;0.38;;;;;;;8.61;81.68;101329.47;15757396;28;20038;-48
2024/02/03 01:42:10;;;;;;;0.60;0.60;;;;;;;8.63;81.25;101314.94;15774322;28;20048;-50
2024/02/03 01:49:46;;;;;;;0.32;0.25;;;;;;;8.76;80.99;101337.53;15740623;28;20037;-53
2024/02/03 01:57:25;;;;;;;0.52;0.20;;;;;;;8.82;80.72;101359.06;15722079;28;20046;-50
2024/02/03 02:05:04;;;;;;;0.00;0.00;;;;;;;8.85;80.52;101349.81;15739763;28;20401;-46
2024/02/03 02:12:38;;;;;;;0.03;0.03;;;;;;;8.98;79.88;101362.56;15740145;28;20040;-50
2024/02/03 02:20:14;;;;;;;0.38;0.38;;;;;;;8.85;80.64;101355.16;15737246;28;20066;-45
2024/02/03 02:27:50;;;;;;;0.00;0.00;;;;;;;8.97;79.82;101329.59;15806436;28;20411;-52
2024/02/03 02:35:31;;;;;;;0.30;0.30;;;;;;;9.02;79.60;101329.03;15863730;28;20039;-50
2024/02/03 02:43:08;;;;;;;0.80;0.32;;;;;;;9.07;79.01;101308.72;15822985;28;20039;-48
2024/02/03 02:50:44;;;;;;;0.10;0.10;;;;;;;9.39;77.68;101298.59;15809515;28;20144;-49
2024/02/03 02:58:18;;;;;;;0.47;0.43;;;;;;;9.25;77.96;101291.44;15799795;28;20044;-48
2024/02/03 03:05:53;;;;;;;0.00;0.00;;;;;;;9.24;77.61;101295.13;15824592;28;20048;-48
2024/02/03 03:13:27;;;;;;;0.10;0.10;;;;;;;9.49;76.34;101303.66;15835761;28;20040;-53
2024/02/03 03:21:05;;;;;;;0.08;0.08;;;;;;;9.37;76.35;101281.88;15814666;28;20036;-49
2024/02/03 03:28:39;;;;;;;0.00;0.00;;;;;;;9.56;75.46;101285.78;15850414;28;20048;-50
2024/02/03 03:36:14;;;;;;;0.35;0.35;;;;;;;9.44;76.04;101293.50;15818274;28;20043;-48
2024/02/03 03:43:49;;;;;;;0.28;0.20;;;;;;;9.64;75.67;101294.53;15824621;28;20106;-47
2024/02/03 03:51:24;;;;;;;0.40;0.40;;;;;;;9.64;76.24;101294.53;15847840;28;20043;-48
2024/02/03 03:59:01;;;;;;;0.98;0.70;;;;;;;9.50;77.39;101295.41;15826527;28;20488;-48
2024/02/03 04:06:36;;;;;;;0.20;0.10;;;;;;;9.51;77.33;101301.59;15826892;28;20036;-46
2024/02/03 04:14:12;;;;;;;0.00;0.00;;;;;;;9.61;77.35;101311.03;15856284;28;20035;-47
2024/02/03 04:21:51;;;;;;;0.28;0.28;;;;;;;9.68;76.98;101300.34;15845023;28;20043;-43
2024/02/03 04:29:27;;;;;;;0.50;0.50;;;;;;;9.66;77.01;101292.50;15859614;28;20085;-51
2024/02/03 04:37:02;;;;;;;0.40;0.40;;;;;;;9.63;76.90;101284.03;15841073;28;20039;-44
2024/02/03 04:44:37;;;;;;;0.63;0.50;;;;;;;9.77;76.26;101284.97;15862407;28;20036;-50
2024/02/03 04:52:15;;;;;;;0.20;0.20;;;;;;;9.80;76.60;101292.66;15807448;28;20273;-48
2024/02/03 04:59:48;;;;;;;1.20;1.10;;;;;;;9.65;76.72;101285.50;15806186;28;20070;-45
2024/02/03 05:07:23;;;;;;;0.03;0.03;;;;;;;9.92;75.89;101278.53;15847714;28;20050;-48
2024/02/03 05:14:56;;;;;;;0.47;0.47;;;;;;;9.75;77.11;101292.41;15842035;28;20032;-49
2024/02/03 05:22:31;;;;;;;0.32;0.32;;;;;;;9.65;78.02;101293.53;15809465;28;20047;-50
2024/02/03 05:30:08;;;;;;;0.90;0.30;;;;;;;9.70;78.50;101296.47;15867850;28;20047;-50
2024/02/03 05:37:43;;;;;;;0.13;0.13;;;;;;;9.61;79.21;101304.84;15849577;28;20042;-48
2024/02/03 05:45:17;;;;;;;2.58;0.40;;;;;;;9.53;80.18;101286.19;15807488;28;20408;-49
2024/02/03 05:52:53;;;;;;;0.05;0.05;;;;;;;9.63;79.93;101281.34;15865392;28;20035;-48
2024/02/03 06:00:29;;;;;;;0.00;0.00;;;;;;;9.43;80.46;101295.38;15822487;28;20393;-43
2024/02/03 06:08:05;;;;;;;0.00;0.00;;;;;;;9.56;80.30;101286.66;15858436;28;20093;-52
2024/02/03 06:15:38;;;;;;;0.00;0.00;;;;;;;9.66;80.09;101302.41;15839021;28;20042;-46
2024/02/03 06:23:14;;;;;;;0.00;0.00;;;;;;;9.71;80.04;101287.41;15804509;28;20044;-47
2024/02/03 06:30:47;;;;;;;0.63;0.60;;;;;;;9.62;81.00;101296.59;15856082;28;20036;-45
2024/02/03 06:38:22;;;;;;;;;;;;;;;9.62;80.96;101311.84;15864235;28;20400;-45
2024/02/03 06:45:56;;;;;;;0.47;0.40;;;;;;;9.71;80.96;101321.44;15832691;28;19931;-50
2024/02/03 06:53:31;;;;;;;0.10;0.10;;;;;;;9.81;80.84;101321.94;15799250;28;20035;-47
2024/02/03 07:01:08;;;;;;;1.27;0.22;;;;;;;9.53;82.43;101327.22;15859137;28;20412;-46
2024/02/03 07:08:43;;;;;;;0.45;0.45;;;;;;;9.36;84.09;101323.09;15860574;28;20096;-46
2024/02/03 07:16:18;;;;;;;0.32;0.08;;;;;;;9.32;85.02;101322.63;15821577;28;20036;-46
2024/02/03 07:23:55;;;;;;;1.65;0.85;;;;;;;9.28;86.05;101341.94;15843203;28;20516;-47
2024/02/03 07:31:30;;;;;;;0.00;0.00;;;;;;;9.48;85.71;101343.03;15823788;28;20054;-51
2024/02/03 07:39:05;;;;;;;0.10;0.10;;;;;;;9.13;87.74;101336.59;15861392;28;20661;-49
2024/02/03 07:46:41;;;;;;;0.17;0.17;;;;;;;9.14;87.55;101336.44;15839800;28;20481;-51
2024/02/03 07:54:16;;;;;;;0.60;0.35;;;;;;;9.11;88.66;101352.03;15796791;28;20040;-50
2024/02/03 08:01:49;;;;;;;0.00;0.00;;;;;;;9.20;88.41;101351.75;15800345;28;20073;-54
2024/02/03 08:09:24;;;;;;;;;;;;;;;9.18;88.43;101361.81;15860341;28;20036;-48
2024/02/03 08:17:01;;;;;;;0.00;0.00;;;;;;;9.16;88.91;101355.81;15832675;28;20412;-50
2024/02/03 08:24:36;;;;;;;0.65;0.52;;;;;;;9.29;88.39;101357.84;15766104;28;20040;-48
2024/02/03 08:32:10;;;;;;;1.35;0.47;;;;;;;9.46;87.30;101347.72;15743949;28;20501;-49
2024/02/03 08:39:45;;;;;;;0.05;0.05;;;;;;;9.37;86.78;101333.63;15726133;28;20048;-49
2024/02/03 08:47:20;;;;;;;0.00;0.00;;;;;;;9.67;85.89;101333.56;15745632;28;20041;-48
2024/02/03 08:54:55;;;;;;;;;;;;;;;9.58;85.59;101342.72;15744697;28;20246;-53
2024/02/03 09:02:32;;;;;;;0.00;0.00;;;;;;;9.66;84.93;101342.63;15742960;28;20015;-50
2024/02/03 09:10:09;;;;;;;0.00;0.00;;;;;;;9.73;84.91;101348.88;15742747;28;20412;-54
2024/02/03 09:17:42;;;;;;;0.00;0.00;;;;;;;9.68;84.76;101344.06;15742984;28;20071;-53
2024/02/03 09:25:18;;;;;;;0.00;0.00;;;;;;;9.75;84.72;101327.25;15756188;28;20101;-51
2024/02/03 09:32:51;;;;;;;0.00;0.00;;;;;;;9.69;85.21;101361.81;15804403;28;20056;-50
2024/02/03 09:40:27;;;;;;;0.00;0.00;;;;;;;9.75;85.83;101362.94;15800898;28;20089;-51
2024/02/03 09:48:02;;;;;;;0.47;0.20;;;;;;;9.46;87.76;101369.16;15792349;28;20032;-50
2024/02/03 09:55:37;;;;;;;0.03;0.03;;;;;;;9.50;88.15;101362.41;15801337;28;20091;-51
2024/02/03 10:03:17;;;;;;;0.00;0.00;;;;;;;9.76;87.38;101382.53;15802667;28;20036;-51
2024/02/03 10:10:54;;;;;;;0.00;0.00;;;;;;;9.83;87.25;101378.88;15802655;28;20040;-49
2024/02/03 10:18:32;;;;;;;0.10;0.10;;;;;;;9.98;86.30;101376.16;15796252;28;20493;-49
2024/02/03 10:26:07;;;;;;;0.00;0.00;;;;;;;9.82;85.42;101365.66;15785098;28;20119;-50
2024/02/03 10:33:45;;;;;;;0.00;0.00;;;;;;;10.13;84.21;101374.25;15802919;28;20396;-52
2024/02/03 10:41:21;;;;;;;0.00;0.00;;;;;;;10.26;83.31;101351.25;15801675;28;20082;-50
2024/02/03 10:48:57;;;;;;;0.00;0.00;;;;;;;10.58;81.69;101358.75;15800545;28;20086;-52
2024/02/03 10:56:36;;;;;;;0.77;0.60;;;;;;;10.51;81.75;101365.13;15781091;28;20024;-48
2024/02/03 11:04:13;;;;;;;0.00;0.00;;;;;;;10.78;80.32;101339.28;15797324;28;20044;-50
2024/02/03 11:11:50;;;;;;;0.00;0.00;;;;;;;10.59;79.91;101352.38;15781164;28;20102;-52
2024/02/03 11:19:27;;;;;;;0.00;0.00;;;;;;;10.65;79.99;101348.09;15800031;28;20036;-50
2024/02/03 11:27:08;;;;;;;0.10;0.10;;;;;;;10.70;79.52;101337.59;15782976;28;20117;-50
2024/02/03 11:34:41;;;;;;;0.00;0.00;;;;;;;10.68;79.63;101350.38;15779799;28;20060;-51
2024/02/03 11:42:18;;;;;;;0.10;0.10;;;;;;;10.58;79.56;101334.59;15779042;28;20554;-51
2024/02/03 11:49:52;;;;;;;0.00;0.00;;;;;;;10.68;79.07;101332.41;15795992;28;20036;-52
2024/02/03 11:57:27;;;;;;;0.10;0.10;;;;;;;10.66;78.72;101330.94;15808204;28;20060;-52
2024/02/03 12:05:02;;;;;;;0.00;0.00;;;;;;;10.90;77.45;101332.31;15801002;28;20036;-53
2024/02/03 12:12:37;;;;;;;0.00;0.00;;;;;;;10.92;77.58;101333.81;15775945;28;20040;-52
2024/02/03 12:20:23;;;;;;;0.00;0.00;;;;;;;10.65;77.75;101316.69;15789661;28;20036;-51
2024/02/03 12:27:59;;;;;;;0.77;0.35;;;;;;;10.76;77.76;101325.22;15809524;28;20094;-54
2024/02/03 12:35:33;;;;;;;0.00;0.00;;;;;;;10.70;78.27;101324.16;15808803;28;20043;-50
2024/02/03 12:43:08;;;;;;;0.30;0.30;;;;;;;10.79;78.03;101325.66;15809066;28;20117;-50
2024/02/03 12:50:43;;;;;;;0.70;0.35;;;;;;;10.76;78.60;101304.56;15809113;28;20071;-51
2024/02/03 12:58:20;;;;;;;0.30;0.20;;;;;;;10.55;80.19;101308.16;15807629;28;20075;-51
2024/02/03 13:05:53;;;;;;;0.00;0.00;;;;;;;10.68;79.99;101310.13;15806343;28;20052;-50
2024/02/03 13:13:29;;;;;;;0.10;0.05;;;;;;;10.57;79.76;101295.34;15808324;28;20051;-51
2024/02/03 13:21:05;;;;;;;0.10;0.10;;;;;;;10.39;81.09;101320.00;15798368;28;20040;-50
2024/02/03 13:28:41;;;;;;;0.00;0.00;;;;;;;10.32;82.74;101313.78;15849846;28;20399;-49
2024/02/03 13:36:16;;;;;;;0.00;0.00;;;;;;;10.32;83.52;101310.25;15867456;28;20132;-53
2024/02/03 13:44:00;;;;;;;0.00;0.00;;;;;;;10.15;84.09;101320.41;15866526;28;20063;-49
2024/02/03 13:51:38;;;;;;;0.00;0.00;;;;;;;10.14;84.56;101318.75;15856599;28;20063;-51
2024/02/03 13:59:13;;;;;;;0.00;0.00;;;;;;;10.29;84.24;101314.16;15867851;28;20042;-49
2024/02/03 14:06:46;;;;;;;0.10;0.10;;;;;;;10.28;83.47;101304.44;15839495;28;20048;-49
2024/02/03 14:14:22;;;;;;;0.20;0.20;;;;;;;10.38;82.40;101304.09;15800783;28;20040;-48
2024/02/03 14:21:55;;;;;;;0.00;0.00;;;;;;;10.50;81.69;101299.03;15802241;28;20044;-49
2024/02/03 14:29:32;;;;;;;0.00;0.00;;;;;;;10.45;82.19;101300.47;15753174;28;20040;-49
2024/02/03 14:37:07;;;;;;;0.17;0.17;;;;;;;10.29;82.72;101302.59;15736579;28;20040;-52
2024/02/03 14:44:43;;;;;;;0.00;0.00;;;;;;;10.34;83.92;101308.19;15741261;28;20058;-52
2024/02/03 14:52:18;;;;;;;0.05;0.05;;;;;;;9.96;86.60;101311.16;15736722;28;20577;-52
2024/02/03 14:59:53;;;;;;;0.00;0.00;;;;;;;10.10;86.26;101309.41;15735917;28;20502;-50
2024/02/03 15:07:27;;;;;;;0.00;0.00;;;;;;;9.79;87.95;101315.97;15727842;28;20064;-52
2024/02/03 15:15:03;;;;;;;0.32;0.32;;;;;;;9.89;86.95;101321.81;15742942;28;20051;-49
2024/02/03 15:22:42;;;;;;;0.00;0.00;;;;;;;10.07;86.80;101332.09;15735437;28;20045;-52
2024/02/03 15:30:17;;;;;;;0.28;0.10;;;;;;;9.80;88.32;101341.75;15833688;28;20063;-50
2024/02/03 15:37:51;;;;;;;0.03;0.03;;;;;;;9.64;89.03;101326.69;15801167;28;20048;-47
2024/02/03 15:45:26;;;;;;;0.00;0.00;;;;;;;9.70;88.70;101334.00;15801624;28;20040;-49
2024/02/03 15:53:02;;;;;;;0.10;0.10;;;;;;;9.70;88.13;101327.81;15825684;28;20089;-47
2024/02/03 16:00:38;;;;;;;0.05;0.00;;;;;;;9.76;87.99;101336.94;15860323;28;20069;-48
2024/02/03 16:08:12;;;;;;;0.08;0.08;;;;;;;9.84;87.54;101339.47;15812758;28;20412;-51
2024/02/03 16:15:51;;;;;;;0.00;0.00;;;;;;;9.67;87.80;101336.22;15836154;28;20036;-50
2024/02/03 16:23:24;;;;;;;0.40;0.40;;;;;;;9.69;88.55;101329.66;15826907;28;20044;-49
2024/02/03 16:31:00;;;;;;;0.00;0.00;;;;;;;9.56;90.09;101326.84;15803254;28;20040;-51
2024/02/03 16:38:34;;;;;;;18.85;0.77;;;;;;;9.42;89.96;101320.50;15819906;28;20036;-52
2024/02/03 16:46:09;;;;;;;0.08;0.08;;;;;;;9.29;90.79;101339.09;15825073;28;20051;-54
2024/02/03 16:53:43;;;;;;;1.98;0.45;;;;;;;9.58;89.62;101332.84;15819929;28;20043;-49
2024/02/03 17:01:18;;;;;;;0.15;0.15;;;;;;;9.45;90.14;101338.03;15851299;28;20043;-50
2024/02/03 17:08:53;;;;;;;0.73;0.73;;;;;;;9.62;89.61;101330.59;15824618;28;20131;-51
2024/02/03 17:16:28;;;;;;;;;;;;;;;9.56;89.29;101334.88;15818900;28;20078;-52
2024/02/03 17:24:02;;;;;;;0.63;0.52;;;;;;;9.48;90.18;101342.19;15800979;28;20269;-51
2024/02/03 17:31:37;;;;;;;2.15;0.57;;;;;;;9.32;90.20;101344.06;15722194;28;20041;-48
2024/02/03 17:39:11;;;;;;;0.75;0.55;;;;;;;9.67;88.30;101347.78;15722849;28;20044;-49
2024/02/03 17:46:46;;;;;;;0.35;0.35;;;;;;;9.35;89.92;101332.16;15725432;28;20043;-47
2024/02/03 17:54:19;;;;;;;0.22;0.22;;;;;;;9.46;89.54;101320.94;15739401;28;20043;-49
2024/02/03 18:01:54;;;;;;;0.93;0.45;;;;;;;9.48;89.42;101335.00;15722483;28;20054;-48
2024/02/03 18:09:28;;;;;;;0.10;0.10;;;;;;;9.26;89.97;101333.28;15739169;28;20037;-49
2024/02/03 18:17:02;;;;;;;;;;;;;;;9.55;89.42;101333.19;15720655;28;20043;-49
2024/02/03 18:24:38;;;;;;;0.32;0.32;;;;;;;9.33;88.96;101313.59;15729170;28;20034;-50
2024/02/03 18:32:12;;;;;;;0.45;0.45;;;;;;;9.32;88.77;101325.31;15782818;28;20116;-53
2024/02/03 18:39:49;;;;;;;0.30;0.30;;;;;;;9.15;89.28;101323.88;15799700;28;20173;-50
2024/02/03 18:47:23;;;;;;;0.03;0.03;;;;;;;9.08;89.50;101314.91;15796910;28;20054;-48
2024/02/03 18:54:58;;;;;;;4.95;1.35;;;;;;;9.44;88.55;101325.66;15797649;28;20040;-49
2024/02/03 19:02:33;;;;;;;0.08;0.08;;;;;;;9.12;89.60;101333.09;15798758;28;20058;-53
2024/02/03 19:10:07;;;;;;;0.55;0.52;;;;;;;9.24;89.12;101333.47;15797091;28;20064;-51
2024/02/03 19:17:43;;;;;;;0.00;0.00;;;;;;;9.31;89.62;101341.56;15797507;28;20050;-49
2024/02/03 19:25:17;;;;;;;0.00;0.00;;;;;;;9.32;89.44;101322.63;15810468;28;20031;-50
2024/02/03 19:32:52;;;;;;;0.35;0.35;;;;;;;9.23;89.37;101328.28;15860724;28;20508;-51
2024/02/03 19:40:26;;;;;;;0.00;0.00;;;;;;;9.58;87.90;101326.66;15859581;28;20153;-46
2024/02/03 19:48:01;;;;;;;0.13;0.10;;;;;;;9.35;88.31;101327.63;15829104;28;20082;-52
2024/02/03 19:55:35;;;;;;;0.00;0.00;;;;;;;9.16;89.40;101345.09;15778472;28;20040;-50
2024/02/03 20:03:11;;;;;;;0.20;0.17;;;;;;;9.20;88.64;101351.75;15791924;28;20144;-51
2024/02/03 20:10:46;;;;;;;0.10;0.10;;;;;;;8.97;89.10;101364.41;15841877;28;20035;-51
2024/02/03 20:18:20;;;;;;;;;;;;;;;8.81;89.13;101356.53;15853223;28;20043;-49
2024/02/03 20:25:54;;;;;;;0.00;0.00;;;;;;;8.76;88.72;101366.97;15870552;28;19931;-49
2024/02/03 20:33:32;;;;;;;0.15;0.15;;;;;;;8.83;87.55;101363.38;15870763;28;20040;-49
2024/02/03 20:41:06;;;;;;;0.17;0.10;;;;;;;8.77;86.69;101361.44;15870111;28;20044;-50
2024/02/03 20:48:43;;;;;;;0.00;0.00;;;;;;;8.82;86.23;101358.22;15839470;28;20112;-47
2024/02/03 20:56:18;;;;;;;0.25;0.25;;;;;;;8.61;86.08;101353.56;15805618;28;20469;-50
2024/02/03 21:03:54;;;;;;;0.00;0.00;;;;;;;8.66;86.03;101333.28;15824718;28;20543;-49
2024/02/03 21:11:35;;;;;;;0.10;0.10;;;;;;;8.31;86.31;101331.25;15850670;28;20484;-50
2024/02/03 21:19:11;;;;;;;0.08;0.08;;;;;;;8.31;86.08;101318.72;15868039;28;20074;-53
2024/02/03 21:26:46;;;;;;;0.00;0.00;;;;;;;8.13;85.95;101337.75;15841765;28;20457;-48
2024/02/03 21:34:21;;;;;;;0.00;0.00;;;;;;;8.28;84.97;101323.59;15866982;28;20066;-50
2024/02/03 21:41:55;;;;;;;0.00;0.00;;;;;;;7.98;85.47;101326.19;15848532;28;20032;-47
2024/02/03 21:49:30;;;;;;;0.00;0.00;;;;;;;7.84;85.48;101334.97;15823299;28;20039;-48
2024/02/03 21:57:04;;;;;;;0.00;0.00;;;;;;;7.97;84.63;101348.56;15801780;28;20075;-49
2024/02/03 22:04:39;;;;;;;0.00;0.00;;;;;;;8.19;82.96;101344.22;15825436;28;20043;-49
2024/02/03 22:12:14;;;;;;;0.00;0.00;;;;;;;8.10;83.69;101342.63;15862123;28;20043;-48
2024/02/03 22:19:50;;;;;;;0.00;0.00;;;;;;;7.85;87.16;101331.28;15861733;28;20079;-48
2024/02/03 22:27:23;;;;;;;0.00;0.00;;;;;;;7.84;88.53;101318.94;15860836;28;20127;-48
2024/02/03 22:34:58;;;;;;;;;;;;;;;7.64;88.86;101316.69;15853240;28;20043;-47
2024/02/03 22:42:31;;;;;;;0.00;0.00;;;;;;;7.93;88.12;101313.34;15809522;28;20227;-51
2024/02/03 22:50:07;;;;;;;;;;;;;;;7.81;88.22;101319.28;15774338;28;20068;-49
2024/02/03 22:57:41;;;;;;;0.45;0.45;;;;;;;7.95;86.66;101326.53;15847233;28;19957;-48
2024/02/03 23:05:18;;;;;;;;;;;;;;;8.05;86.29;101320.94;15817772;28;20044;-50
2024/02/03 23:12:53;;;;;;;0.00;0.00;;;;;;;7.99;86.23;101321.66;15789057;28;19947;-49
2024/02/03 23:20:28;;;;;;;0.00;0.00;;;;;;;8.19;86.20;101326.31;15839838;28;20119;-49
2024/02/03 23:28:02;;;;;;;0.15;0.15;;;;;;;8.07;86.44;101322.44;15822084;28;20050;-50
2024/02/03 23:35:37;;;;;;;0.00;0.00;;;;;;;8.21;85.32;101320.81;15843846;28;20044;-47
2024/02/03 23:43:11;;;;;;;0.20;0.15;;;;;;;7.59;86.58;101310.22;15822066;28;20493;-47
2024/02/03 23:50:49;;;;;;;0.00;0.00;;;;;;;7.60;84.84;101286.03;15848812;28;20105;-49
2024/02/03 23:58:23;;;;;;;0.15;0.15;;;;;;;7.29;84.47;101310.06;15794673;28;20079;-50
